El Kharga Airport


Codes: HEKG/UVL
Name: El Kharga Airport
City:
Country: Egypt
Elevation: 192 ft.

Photos at El Kharga Airport


   Photos courtesy of SpottingLog. You can add your own sightings and photos by signing up for a free trial today.



No photos found.

Weather at El Kharga Airport


Time (UTC)DescriptionTempratureWindCloud coverageVisibilityPressureHumidity
16-Jun-2024 00:00Clear Sky34°C13 mph, N4%10000m1003hPa16%
16-Jun-2024 03:00Clear Sky33°C16 mph, N3%10000m1003hPa20%
16-Jun-2024 06:00Clear Sky36°C25 mph, N2%10000m1004hPa17%
16-Jun-2024 09:00Clear Sky44°C20 mph, NE2%10000m1005hPa9%
16-Jun-2024 12:00Scattered Clouds46°C13 mph, NE38%10000m1003hPa7%
16-Jun-2024 15:00Broken Clouds45°C22 mph, N51%10000m1002hPa7%
16-Jun-2024 18:00Scattered Clouds39°C16 mph, N39%10000m1004hPa11%
16-Jun-2024 21:00Clear Sky37°C20 mph, N4%10000m1006hPa14%
17-Jun-2024 00:00Clear Sky34°C11 mph, N9%10000m1006hPa17%
17-Jun-2024 03:00Few Clouds31°C11 mph, N11%10000m1007hPa24%
17-Jun-2024 06:00Clear Sky35°C18 mph, N7%10000m1008hPa22%
17-Jun-2024 09:00Clear Sky41°C18 mph, N0%10000m1008hPa13%
17-Jun-2024 12:00Clear Sky43°C16 mph, N0%10000m1006hPa10%
17-Jun-2024 15:00Clear Sky42°C18 mph, N0%10000m1005hPa11%
17-Jun-2024 18:00Clear Sky36°C11 mph, N0%10000m1007hPa14%
17-Jun-2024 21:00Clear Sky33°C11 mph, N0%10000m1007hPa12%
18-Jun-2024 00:00Clear Sky30°C9 mph, N0%10000m1006hPa12%
18-Jun-2024 03:00Clear Sky27°C11 mph, N0%10000m1008hPa31%
18-Jun-2024 06:00Clear Sky32°C18 mph, N0%10000m1009hPa28%
18-Jun-2024 09:00Clear Sky38°C16 mph, N0%10000m1008hPa15%
18-Jun-2024 12:00Clear Sky41°C13 mph, N0%10000m1006hPa9%
18-Jun-2024 15:00Clear Sky40°C13 mph, N0%10000m1005hPa9%
18-Jun-2024 18:00Clear Sky34°C9 mph, N0%10000m1006hPa14%
18-Jun-2024 21:00Clear Sky32°C9 mph, N0%10000m1007hPa16%
19-Jun-2024 00:00Clear Sky30°C11 mph, N0%10000m1006hPa20%
19-Jun-2024 03:00Clear Sky27°C9 mph, N0%10000m1006hPa34%
19-Jun-2024 06:00Clear Sky32°C13 mph, N0%10000m1007hPa28%
19-Jun-2024 09:00Clear Sky38°C11 mph, N0%10000m1006hPa18%
19-Jun-2024 12:00Clear Sky42°C11 mph, N0%10000m1004hPa12%
19-Jun-2024 15:00Clear Sky41°C13 mph, N0%10000m1004hPa11%
19-Jun-2024 18:00Clear Sky35°C9 mph, N0%10000m1005hPa14%
19-Jun-2024 21:00Clear Sky33°C9 mph, N0%10000m1006hPa18%
20-Jun-2024 00:00Clear Sky31°C9 mph, N0%10000m1005hPa21%
20-Jun-2024 03:00Clear Sky28°C9 mph, N0%10000m1006hPa34%
20-Jun-2024 06:00Clear Sky33°C13 mph, N0%10000m1008hPa29%
20-Jun-2024 09:00Clear Sky40°C11 mph, N0%10000m1007hPa15%
20-Jun-2024 12:00Clear Sky43°C11 mph, NW0%10000m1004hPa9%
20-Jun-2024 15:00Clear Sky42°C13 mph, N0%10000m1004hPa10%
20-Jun-2024 18:00Clear Sky36°C11 mph, N0%10000m1005hPa13%
20-Jun-2024 21:00Clear Sky34°C9 mph, N0%10000m1007hPa14%